CIX weather

Capitan FAP Jose A Quinones Gonzales International Airport
Chiclayo, Lambayeque Region, PerĂº

Public forecast

Using degrees Celsius for public forecast. Weather courtesy of forecast.io.

METAR (pilot weather report)

Retrieved 2019/05/20 18:00 UTC (52 minutes ago):

SPHI 201800Z 18017KT CAVOK 26/18 Q1013 RMK BIRD HAZARD RWY 19/01 PP000

TAF (pilot weather forecast)

Forecast is more than 6 hours old.

Retrieved 2019/05/20 12:33 UTC (6 hours ago):

TAF SPHI 201100Z 2012/2112 17010KT CAVOK TX27/2019Z TN18/2111Z BECMG 2018/2020 18020KT FM210400 18010KT 9999 SCT050